Airfield :







YOU CAN JOIN US ON...

 
LOGIN :

Register | Disclaimer

   EN    FR    IT 

 









Legend :    VFR   Marginal VFR   IFR   Intensive IFR   Very Intensive IFR
Visi :
Ceiling :
>= 8 km
>= 3000ft
5 to 8 km
1000 to 3000 ft
1500m to 5 km
500 to 1000 ft
800 to 1500m
200 to 500 ft
< 800m
< 200 ft
Symbols :   Thunderstorms  Fog  Heavy snow  Heavy precipitations  Wind > 20 kt






- Airport Elevation : 1040 ft


KAFN - Jaffrey Silver Ranch

CURRENT METAR :
  • 060452Z AUTO 00000KT 10SM BKN045 BKN050 09/05 A2996 RMK AO2 SLP152 T00890050 401330061

EXPIRED METARs :
  • 060352Z AUTO 00000KT 10SM SCT037 OVC050 07/07 A2996 RMK AO2 SLP153 T00670067
  • 060252Z AUTO 00000KT 10SM FEW037 SCT046 BKN055 07/07 A2995 RMK AO2 SLP152 T00670067 52000
  • 060152Z AUTO 23003KT 9SM CLR 07/07 A2995 RMK AO2 SLP152 T00670067

TAF N/A



MET'MAP, your aeronautical weather chart ! - Copyright ORBIFLY December 2007 - Disclaimer

ORBIFLY MET'MAP TEAM :

Programming & Development : Alexandra Zaïnal
Concept & original design : Baudouin d'Aumeries
Assistance for programming : Marc-Olivier Méhu
Technical & hardware support : Manuel Goepfert

Contact : metmap@orbifly.com




SOURCES & CREDITS :

   NOAA